createdAt,value
2022-09-26T00:04:49.617Z,7.8
2022-09-26T00:10:10.674Z,7.8
2022-09-26T04:49:14.744Z,9.1
2022-09-26T04:54:53.395Z,9.2
2022-09-26T05:00:28.787Z,9.3
2022-09-26T05:06:11.257Z,9.3
2022-09-26T05:11:54.142Z,9.4
2022-09-26T05:17:35.489Z,9.6
2022-09-26T05:22:57.353Z,9.8
2022-09-26T05:28:35.885Z,10.1
2022-09-26T05:33:57.736Z,10.9
2022-09-26T05:39:24.378Z,12.8
2022-09-26T05:45:04.073Z,14.7
2022-09-26T05:50:43.654Z,15.8
2022-09-26T05:56:21.596Z,16.3
2022-09-26T06:01:45.436Z,16.9
2022-09-26T06:07:24.477Z,18.6
2022-09-26T06:13:07.218Z,22.2
2022-09-26T06:18:46.451Z,28.2
2022-09-26T06:24:26.875Z,29.6
2022-09-26T06:30:04.406Z,29
2022-09-26T06:35:45.989Z,29.6
2022-09-26T06:41:26.777Z,35
2022-09-26T06:46:49.171Z,32.7
2022-09-26T06:52:12.291Z,33.5
2022-09-26T06:57:59.907Z,34.5
2022-09-26T07:03:23.273Z,35.6
2022-09-26T07:09:18.307Z,36.4
2022-09-26T07:15:38.466Z,36.9
2022-09-26T07:21:00.675Z,36.7
2022-09-26T07:26:23.973Z,38
2022-09-26T07:31:31.928Z,38.6
2022-09-26T07:36:59.558Z,38.6
2022-09-26T07:42:25.305Z,39.2
2022-09-26T07:49:37.500Z,40.7
2022-09-26T07:54:50.342Z,41.4
2022-09-26T08:00:13.296Z,42.4
2022-09-26T08:05:39.281Z,43.3
2022-09-26T08:11:03.858Z,44.2
2022-09-26T08:16:26.951Z,45.1
2022-09-26T08:21:49.175Z,46
2022-09-26T08:27:11.187Z,46.7
2022-09-26T08:32:34.941Z,47.3
2022-09-26T08:37:57.616Z,48.1
2022-09-26T08:43:19.970Z,48.6
2022-09-26T08:48:43.209Z,49.5
2022-09-26T08:53:48.971Z,50.3
2022-09-26T08:59:26.595Z,51.1
2022-09-26T14:25:28.064Z,32.9
2022-09-26T14:30:51.634Z,32.1
2022-09-26T14:36:02.156Z,31.4
2022-09-26T14:41:24.515Z,30.7
2022-09-26T14:46:47.829Z,30.1
2022-09-26T14:51:54.389Z,29.6
2022-09-26T14:57:20.695Z,29
2022-09-26T15:02:44.332Z,28.6
2022-09-26T15:07:51.356Z,28.1
2022-09-26T15:13:13.720Z,27.8
2022-09-26T15:18:37.121Z,27.4
2022-09-26T15:23:58.384Z,27.1
2022-09-26T15:29:20.482Z,26.7
2022-09-26T15:34:45.225Z,26.4
2022-09-26T15:40:07.259Z,26.1
2022-09-26T15:45:29.643Z,25.8
2022-09-26T15:50:43.468Z,25.6
2022-09-26T15:56:24.032Z,25.3
2022-09-26T16:01:46.337Z,25.1
2022-09-26T16:07:29.998Z,24.8
2022-09-26T16:13:09.684Z,24.6
2022-09-26T16:18:47.484Z,24.4
2022-09-26T16:24:32.256Z,24.2
2022-09-26T16:30:10.235Z,24
2022-09-26T16:35:47.747Z,23.8
2022-09-26T16:47:07.843Z,23.4
2022-09-26T16:52:50.572Z,23.2
2022-09-26T16:58:29.181Z,23.1
2022-09-26T17:04:07.048Z,22.9
2022-09-26T17:09:44.397Z,22.8
2022-09-26T17:15:22.834Z,22.6
2022-09-26T17:21:00.491Z,22.4
2022-09-26T17:27:08.570Z,22.3
2022-09-26T17:32:47.867Z,22.1
2022-09-26T17:38:25.242Z,21.9
2022-09-26T17:44:02.962Z,21.8
2022-09-26T17:49:26.849Z,21.7
2022-09-26T17:54:49.176Z,21.5
2022-09-26T18:00:16.321Z,21.4
2022-09-26T18:05:40.119Z,21.3
2022-09-26T18:11:18.145Z,21.1
2022-09-26T18:16:56.245Z,20.9
2022-09-26T18:22:34.784Z,20.8
2022-09-26T18:28:16.885Z,20.6
2022-09-26T18:33:39.452Z,20.4
